createdAt,value
2019-04-19T00:00:12.785Z,14.87
2019-04-19T00:02:44.644Z,18.77
2019-04-19T00:05:32.745Z,17.47
2019-04-19T00:08:13.354Z,12.93
2019-04-19T00:10:35.300Z,13.03
2019-04-19T00:12:56.586Z,13.87
2019-04-19T00:15:18.879Z,15.30
2019-04-19T00:17:45.801Z,16.60
2019-04-19T00:20:31.332Z,11.83
2019-04-19T00:22:59.376Z,15.57
2019-04-19T00:25:11.418Z,14.93
2019-04-19T00:27:46.113Z,18.20
2019-04-19T00:30:18.239Z,17.40
2019-04-19T00:32:54.828Z,14.60
2019-04-19T00:35:05.646Z,15.03
2019-04-19T00:37:33.351Z,12.40
2019-04-19T00:40:22.701Z,14.20
2019-04-19T00:42:48.401Z,18.80
2019-04-19T00:45:27.761Z,15.30
2019-04-19T00:47:51.642Z,14.53
2019-04-19T00:50:18.494Z,16.87
2019-04-19T00:52:53.216Z,16.93
2019-04-19T00:55:13.840Z,16.50
2019-04-19T00:57:42.020Z,16.37
2019-04-19T01:00:06.391Z,13.50
2019-04-19T01:02:36.402Z,14.20
2019-04-19T01:05:08.872Z,14.13
2019-04-19T01:07:35.729Z,18.30
2019-04-19T01:10:14.915Z,17.07
2019-04-19T01:12:47.913Z,13.60
2019-04-19T01:15:09.343Z,11.53
2019-04-19T01:17:46.083Z,15.17
2019-04-19T01:20:00.273Z,17.70
2019-04-19T01:22:26.151Z,18.17
2019-04-19T01:24:51.601Z,15.07
2019-04-19T01:27:24.717Z,16.77
2019-04-19T01:29:52.684Z,19.70
2019-04-19T01:32:19.435Z,13.07
2019-04-19T01:34:46.722Z,15.83
2019-04-19T01:37:18.711Z,17.37
2019-04-19T01:40:00.794Z,14.10
2019-04-19T01:42:29.491Z,22.87
2019-04-19T01:44:56.846Z,16.93
2019-04-19T01:47:31.918Z,16.33
2019-04-19T01:49:56.255Z,17.43
2019-04-19T01:52:41.903Z,29.53
2019-04-19T01:54:54.193Z,20.30
2019-04-19T01:57:12.767Z,14.90
2019-04-19T01:59:45.128Z,19.80
2019-04-19T02:02:13.732Z,14.33
2019-04-19T02:04:37.698Z,14.20
2019-04-19T02:07:11.172Z,14.60
2019-04-19T02:09:48.709Z,14.60
2019-04-19T02:12:18.153Z,16.43
2019-04-19T02:14:37.434Z,15.03
2019-04-19T02:17:03.182Z,17.70
2019-04-19T02:19:29.401Z,23.63
2019-04-19T02:21:55.550Z,18.97
2019-04-19T02:24:29.690Z,16.17
2019-04-19T02:26:56.806Z,15.47
2019-04-19T02:29:21.801Z,17.20
2019-04-19T02:32:15.555Z,17.70
2019-04-19T02:34:41.518Z,19.70
2019-04-19T02:42:21.360Z,16.63
2019-04-19T02:44:46.021Z,15.30
2019-04-19T02:49:47.971Z,16.90
2019-04-19T02:52:19.996Z,18.63
2019-04-19T02:55:00.222Z,22.87
2019-04-19T02:57:29.772Z,19.97
2019-04-19T02:59:56.862Z,15.70
2019-04-19T03:02:35.253Z,19.73
2019-04-19T03:06:54.300Z,15.20
2019-04-19T03:09:18.311Z,18.93
2019-04-19T03:11:56.290Z,21.13
2019-04-19T03:14:24.558Z,15.37
2019-04-19T03:16:58.193Z,18.60
2019-04-19T03:19:22.269Z,16.53
2019-04-19T03:21:50.349Z,13.77
2019-04-19T03:24:18.701Z,15.93
2019-04-19T03:26:46.196Z,15.53
2019-04-19T03:29:14.850Z,18.57
2019-04-19T03:31:58.831Z,17.00
2019-04-19T03:34:31.503Z,18.73
2019-04-19T03:36:42.491Z,14.83
2019-04-19T03:39:17.736Z,13.93
2019-04-19T03:41:57.412Z,16.60
2019-04-19T03:44:25.268Z,17.63
2019-04-19T03:46:58.012Z,18.73
2019-04-19T03:49:30.462Z,20.57
2019-04-19T03:51:57.391Z,16.17
2019-04-19T03:54:21.738Z,18.93
2019-04-19T03:56:43.745Z,15.50
2019-04-19T03:58:57.403Z,18.23
2019-04-19T04:01:28.803Z,12.73
2019-04-19T04:04:01.919Z,15.60
2019-04-19T04:06:28.786Z,15.13
2019-04-19T04:09:10.721Z,14.97
2019-04-19T04:11:51.096Z,20.63
2019-04-19T04:14:21.828Z,19.33
2019-04-19T04:16:45.879Z,14.53
2019-04-19T04:19:10.293Z,22.40
2019-04-19T04:21:43.385Z,13.40
2019-04-19T04:24:17.410Z,16.43
2019-04-19T04:26:48.503Z,20.57
2019-04-19T04:29:13.611Z,15.47
2019-04-19T04:31:44.105Z,18.03
2019-04-19T04:34:10.272Z,15.73
2019-04-19T04:36:46.468Z,14.83
2019-04-19T04:38:58.558Z,21.80
2019-04-19T04:41:28.384Z,16.43
2019-04-19T04:44:13.534Z,13.33
2019-04-19T04:46:48.571Z,15.53
2019-04-19T04:49:32.698Z,18.57
2019-04-19T04:51:44.523Z,15.70
2019-04-19T04:54:08.423Z,18.00
2019-04-19T04:56:47.955Z,15.03
2019-04-19T04:59:11.614Z,15.70
2019-04-19T05:01:46.489Z,16.90
2019-04-19T05:04:15.218Z,19.40
2019-04-19T05:06:54.355Z,17.37
2019-04-19T05:09:25.171Z,16.80
2019-04-19T05:11:47.336Z,15.00
2019-04-19T05:14:17.918Z,16.40
2019-04-19T05:17:12.475Z,16.17
2019-04-19T05:19:13.083Z,16.87
2019-04-19T05:21:40.164Z,18.37
2019-04-19T05:24:15.852Z,15.07
2019-04-19T05:29:03.484Z,17.90
2019-04-19T05:31:26.707Z,17.00
2019-04-19T05:34:08.118Z,15.27
2019-04-19T05:36:35.153Z,22.27
2019-04-19T05:39:11.286Z,25.60
2019-04-19T05:41:34.980Z,20.00
2019-04-19T05:44:31.556Z,26.93
2019-04-19T05:47:06.290Z,17.50
2019-04-19T05:49:18.129Z,18.73
2019-04-19T05:51:47.345Z,17.83
2019-04-19T05:54:03.492Z,15.50
2019-04-19T05:56:26.355Z,19.13
2019-04-19T05:59:03.288Z,13.60
2019-04-19T06:01:43.181Z,16.70
2019-04-19T06:04:07.508Z,17.30
2019-04-19T06:06:45.384Z,18.03
2019-04-19T06:08:47.607Z,16.40
2019-04-19T06:11:17.194Z,17.27
2019-04-19T06:13:51.974Z,17.50
2019-04-19T06:16:25.425Z,14.37
2019-04-19T06:18:54.018Z,19.80
2019-04-19T06:21:27.995Z,17.10
2019-04-19T06:24:01.716Z,16.03
2019-04-19T06:29:01.808Z,20.87
2019-04-19T06:31:27.933Z,17.00
2019-04-19T06:33:53.364Z,13.77
2019-04-19T06:36:05.821Z,20.07
2019-04-19T06:38:30.920Z,12.60
2019-04-19T06:41:02.208Z,13.50
2019-04-19T06:43:39.454Z,18.30
2019-04-19T06:46:10.532Z,17.30
2019-04-19T06:48:26.992Z,18.53
2019-04-19T06:50:55.628Z,17.83
2019-04-19T06:53:18.982Z,14.70
2019-04-19T06:55:49.895Z,18.63
2019-04-19T06:58:20.443Z,13.57
2019-04-19T07:00:57.288Z,19.50
2019-04-19T07:03:11.424Z,19.17
2019-04-19T07:05:49.688Z,12.17
2019-04-19T07:08:51.448Z,15.50
2019-04-19T07:11:00.512Z,20.13
2019-04-19T07:13:17.467Z,15.80
2019-04-19T07:15:59.981Z,18.23
2019-04-19T07:18:20.075Z,12.60
2019-04-19T07:20:47.190Z,15.33
2019-04-19T07:23:16.175Z,15.43
2019-04-19T07:25:47.760Z,13.23
2019-04-19T07:28:04.958Z,19.43
2019-04-19T07:30:22.762Z,16.10
2019-04-19T07:32:55.558Z,10.57
2019-04-19T07:35:43.827Z,12.10
2019-04-19T07:38:15.217Z,11.93
2019-04-19T07:40:38.456Z,16.43
2019-04-19T07:43:02.690Z,10.97
2019-04-19T07:45:24.714Z,11.37
2019-04-19T07:47:56.606Z,13.17
2019-04-19T07:50:22.726Z,13.03
2019-04-19T07:52:52.669Z,13.43
2019-04-19T07:55:14.184Z,12.87
2019-04-19T07:58:16.999Z,11.20
2019-04-19T08:03:17.324Z,14.03
2019-04-19T08:05:43.916Z,12.00
2019-04-19T08:13:12.862Z,10.40
2019-04-19T08:18:20.875Z,8.80
2019-04-19T08:27:45.767Z,11.50
2019-04-19T08:30:08.411Z,10.20
2019-04-19T08:32:32.286Z,7.80
2019-04-19T08:35:02.801Z,10.07
2019-04-19T08:37:33.989Z,9.87
2019-04-19T08:40:08.656Z,13.03
2019-04-19T08:42:42.609Z,7.40
2019-04-19T08:44:59.631Z,10.10
2019-04-19T08:47:32.661Z,9.07
2019-04-19T08:50:00.947Z,6.40
2019-04-19T08:52:31.680Z,7.70
2019-04-19T08:55:14.439Z,8.37
2019-04-19T08:57:26.071Z,6.07
2019-04-19T09:00:18.722Z,8.10
2019-04-19T09:02:34.486Z,7.70
2019-04-19T09:05:04.835Z,6.80
2019-04-19T09:07:47.315Z,7.37
2019-04-19T09:10:18.088Z,6.00
2019-04-19T09:12:32.364Z,11.47
2019-04-19T09:15:01.030Z,6.20
2019-04-19T09:18:09.059Z,7.33
2019-04-19T09:22:24.355Z,5.93
2019-04-19T09:24:45.017Z,8.03
2019-04-19T09:27:29.161Z,11.50
2019-04-19T09:29:55.147Z,9.07
2019-04-19T09:32:12.813Z,6.03
2019-04-19T09:34:39.090Z,12.63
2019-04-19T09:37:13.045Z,6.87
2019-04-19T09:39:45.428Z,7.03
2019-04-19T09:42:15.595Z,8.53
2019-04-19T09:44:41.572Z,5.87
2019-04-19T09:47:05.724Z,11.60
2019-04-19T09:49:47.782Z,5.70
2019-04-19T09:52:28.949Z,10.50
2019-04-19T09:54:51.726Z,7.67
2019-04-19T09:57:13.188Z,17.90
2019-04-19T09:59:31.190Z,7.17
2019-04-19T10:01:58.020Z,7.97
2019-04-19T10:04:23.086Z,8.67
2019-04-19T10:06:51.114Z,6.50
2019-04-19T10:09:22.211Z,7.07
2019-04-19T10:11:47.244Z,6.77
2019-04-19T10:14:14.973Z,7.33
2019-04-19T10:16:46.835Z,6.90
2019-04-19T10:19:13.281Z,9.47
2019-04-19T10:21:43.585Z,10.40
2019-04-19T10:24:14.753Z,7.17
2019-04-19T10:26:52.578Z,10.40
2019-04-19T10:29:26.555Z,9.80
2019-04-19T10:31:52.276Z,7.97
2019-04-19T10:34:18.580Z,10.73
2019-04-19T10:36:47.743Z,6.67
2019-04-19T10:39:16.735Z,6.80
2019-04-19T10:41:44.481Z,6.20
2019-04-19T10:44:16.579Z,8.43
2019-04-19T10:46:40.624Z,5.73
2019-04-19T10:49:13.116Z,7.17
2019-04-19T10:51:41.872Z,7.73
2019-04-19T10:54:10.709Z,9.37
2019-04-19T10:56:40.561Z,8.33
2019-04-19T10:59:07.168Z,7.00
2019-04-19T11:01:33.848Z,10.00
2019-04-19T11:04:00.222Z,8.00
2019-04-19T11:06:27.193Z,6.70
2019-04-19T11:08:56.743Z,7.43
2019-04-19T11:11:23.591Z,7.87
2019-04-19T11:13:56.764Z,7.13
2019-04-19T11:16:23.638Z,7.07
2019-04-19T11:18:49.983Z,7.03
2019-04-19T11:21:17.784Z,6.90
2019-04-19T11:23:45.464Z,12.40
2019-04-19T11:26:12.710Z,8.63
2019-04-19T11:28:39.193Z,7.67
2019-04-19T11:31:19.423Z,5.50
2019-04-19T11:33:47.401Z,7.00
2019-04-19T11:36:15.341Z,9.20
2019-04-19T11:38:43.047Z,12.00
2019-04-19T11:41:09.612Z,6.40
2019-04-19T11:43:36.293Z,5.47
2019-04-19T11:46:04.060Z,7.00
2019-04-19T11:48:32.997Z,6.57
2019-04-19T11:51:00.060Z,6.83
2019-04-19T11:53:40.680Z,6.23
2019-04-19T11:56:10.580Z,5.83
2019-04-19T11:58:40.361Z,7.80
2019-04-19T12:01:14.619Z,5.33
2019-04-19T12:03:43.536Z,6.40
2019-04-19T12:06:10.088Z,6.93
2019-04-19T12:08:36.445Z,6.90
2019-04-19T12:11:02.767Z,5.83
2019-04-19T12:13:30.684Z,5.10
2019-04-19T12:15:59.001Z,6.03
2019-04-19T12:18:28.576Z,4.30
2019-04-19T12:20:55.463Z,5.43
2019-04-19T12:23:23.435Z,5.10
2019-04-19T12:25:51.367Z,4.53
2019-04-19T12:28:19.896Z,5.03
2019-04-19T12:30:50.610Z,5.37
2019-04-19T12:33:15.278Z,4.43
2019-04-19T12:35:43.218Z,5.50
2019-04-19T12:38:10.339Z,4.60
2019-04-19T12:40:40.161Z,4.97
2019-04-19T12:43:07.740Z,5.50
2019-04-19T12:45:34.146Z,5.37
2019-04-19T12:48:00.956Z,4.53
2019-04-19T12:50:29.523Z,5.00
2019-04-19T12:52:57.978Z,4.70
2019-04-19T12:55:24.395Z,7.33
2019-04-19T12:57:54.166Z,5.63
2019-04-19T13:00:23.567Z,5.10
2019-04-19T13:02:52.013Z,6.17
2019-04-19T13:05:20.440Z,4.90
2019-04-19T13:07:47.741Z,5.30
2019-04-19T13:10:15.161Z,5.37
2019-04-19T13:12:43.898Z,5.57
2019-04-19T13:15:11.486Z,6.53
2019-04-19T13:17:38.219Z,6.90
2019-04-19T13:20:12.767Z,7.47
2019-04-19T13:22:34.523Z,5.90
2019-04-19T13:25:01.600Z,6.10
2019-04-19T13:27:37.368Z,6.80
2019-04-19T13:30:09.717Z,14.97
2019-04-19T13:32:25.984Z,8.70
2019-04-19T13:34:52.453Z,8.00
2019-04-19T13:37:23.485Z,7.13
2019-04-19T13:40:02.099Z,11.83
2019-04-19T13:42:32.902Z,7.53
2019-04-19T13:45:12.198Z,6.30
2019-04-19T13:47:28.809Z,7.13
2019-04-19T13:49:55.981Z,7.17
2019-04-19T13:52:22.511Z,7.73
2019-04-19T13:54:50.480Z,7.67
2019-04-19T13:57:17.620Z,6.23
2019-04-19T13:59:51.507Z,7.40
2019-04-19T14:02:12.626Z,5.97
2019-04-19T14:04:39.807Z,10.97
2019-04-19T14:07:07.285Z,8.03
2019-04-19T14:09:33.847Z,6.53
2019-04-19T14:12:00.885Z,6.80
2019-04-19T14:14:27.824Z,7.50
2019-04-19T14:16:55.659Z,6.33
2019-04-19T14:19:22.695Z,7.10
2019-04-19T14:21:49.222Z,7.50
2019-04-19T14:24:15.639Z,7.30
2019-04-19T14:26:48.675Z,8.20
2019-04-19T14:29:11.710Z,6.93
2019-04-19T14:31:38.235Z,7.90
2019-04-19T14:34:04.873Z,7.50
2019-04-19T14:36:31.774Z,7.83
2019-04-19T14:38:58.332Z,7.60
2019-04-19T14:41:25.422Z,7.00
2019-04-19T14:43:52.534Z,7.60
2019-04-19T14:46:18.987Z,8.20
2019-04-19T14:48:45.351Z,7.10
2019-04-19T14:51:19.523Z,6.23
2019-04-19T14:53:40.924Z,7.10
2019-04-19T14:56:09.062Z,9.10
2019-04-19T14:58:36.261Z,8.30
2019-04-19T15:01:08.824Z,7.00
2019-04-19T15:03:36.888Z,9.00
2019-04-19T15:06:03.892Z,8.43
2019-04-19T15:08:30.756Z,7.10
2019-04-19T15:10:57.701Z,15.17
2019-04-19T15:13:25.127Z,6.80
2019-04-19T15:15:52.124Z,9.73
2019-04-19T15:18:19.110Z,8.17
2019-04-19T15:20:56.179Z,7.97
2019-04-19T15:23:16.239Z,8.13
2019-04-19T15:25:42.768Z,5.80
2019-04-19T15:28:09.114Z,9.13
2019-04-19T15:30:35.503Z,7.03
2019-04-19T15:33:18.959Z,6.97
2019-04-19T15:35:45.809Z,7.00
2019-04-19T15:38:12.174Z,7.70
2019-04-19T15:40:38.464Z,7.60
2019-04-19T15:43:05.282Z,10.27
2019-04-19T15:45:32.382Z,6.83
2019-04-19T15:48:00.267Z,10.77
2019-04-19T15:50:27.620Z,9.80
2019-04-19T15:52:54.144Z,7.37
2019-04-19T15:55:21.922Z,11.53
2019-04-19T15:57:48.634Z,6.47
2019-04-19T16:00:22.298Z,9.30
2019-04-19T16:02:51.845Z,7.17
2019-04-19T16:05:20.012Z,7.43
2019-04-19T16:07:55.715Z,6.83
2019-04-19T16:10:33.244Z,7.57
2019-04-19T16:13:02.222Z,12.90
2019-04-19T16:15:29.801Z,7.50
2019-04-19T16:17:57.786Z,8.53
2019-04-19T16:20:25.171Z,6.43
2019-04-19T16:22:52.136Z,10.73
2019-04-19T16:25:19.160Z,11.13
2019-04-19T16:27:46.789Z,12.40
2019-04-19T16:30:16.439Z,7.33
2019-04-19T16:32:43.491Z,5.77
2019-04-19T16:35:12.002Z,7.97
2019-04-19T16:37:39.253Z,9.90
2019-04-19T16:40:16.450Z,6.30
2019-04-19T16:42:43.509Z,5.73
2019-04-19T16:45:12.379Z,8.00
2019-04-19T16:47:39.481Z,10.40
2019-04-19T16:50:06.831Z,13.80
2019-04-19T16:52:33.445Z,4.60
2019-04-19T16:55:00.564Z,11.87
2019-04-19T16:57:30.422Z,6.00
2019-04-19T16:59:55.741Z,6.43
2019-04-19T17:02:22.727Z,5.80
2019-04-19T17:04:50.426Z,4.97
2019-04-19T17:07:18.525Z,5.33
2019-04-19T17:09:45.248Z,4.40
2019-04-19T17:12:12.539Z,10.10
2019-04-19T17:14:39.243Z,5.20
2019-04-19T17:17:08.602Z,4.77
2019-04-19T17:19:36.967Z,7.23
2019-04-19T17:22:11.861Z,8.20
2019-04-19T17:24:32.273Z,5.60
2019-04-19T17:26:58.859Z,6.70
2019-04-19T17:29:26.757Z,10.60
2019-04-19T17:31:54.219Z,5.03
2019-04-19T17:34:20.790Z,9.30
2019-04-19T17:36:48.425Z,9.73
2019-04-19T17:39:15.015Z,6.40
2019-04-19T17:41:42.842Z,7.23
2019-04-19T17:44:09.420Z,6.67
2019-04-19T17:46:36.206Z,15.23
2019-04-19T17:49:02.735Z,11.00
2019-04-19T17:51:29.635Z,8.50
2019-04-19T17:53:56.351Z,9.30
2019-04-19T17:56:23.644Z,7.30
2019-04-19T17:58:50.150Z,15.30
2019-04-19T18:01:18.058Z,7.57
2019-04-19T18:03:44.947Z,10.33
2019-04-19T18:06:12.201Z,6.33
2019-04-19T18:08:39.832Z,8.30
2019-04-19T18:11:07.706Z,11.10
2019-04-19T18:13:35.213Z,29.03
2019-04-19T18:16:02.743Z,10.03
2019-04-19T18:18:39.123Z,9.37
2019-04-19T18:21:02.087Z,11.53
2019-04-19T18:23:38.217Z,10.40
2019-04-19T18:25:57.527Z,25.53
2019-04-19T18:28:34.878Z,16.27
2019-04-19T18:30:55.698Z,13.93
2019-04-19T18:33:29.736Z,14.77
2019-04-19T18:36:03.349Z,15.57
2019-04-19T18:38:25.820Z,15.50
2019-04-19T18:40:51.346Z,18.87
2019-04-19T18:43:27.757Z,13.27
2019-04-19T18:45:47.908Z,16.83
2019-04-19T18:48:15.652Z,17.30
2019-04-19T18:50:48.393Z,33.03
2019-04-19T18:53:19.036Z,28.93
2019-04-19T18:55:44.162Z,34.20
2019-04-19T18:58:19.186Z,30.43
2019-04-19T19:00:44.538Z,32.00
2019-04-19T19:03:09.367Z,25.53
2019-04-19T19:05:44.113Z,22.93
2019-04-19T19:08:13.713Z,21.97
2019-04-19T19:10:40.963Z,25.00
2019-04-19T19:13:02.481Z,25.93
2019-04-19T19:15:40.043Z,21.63
2019-04-19T19:17:59.827Z,26.13
2019-04-19T19:20:36.675Z,18.63
2019-04-19T19:23:15.089Z,27.73
2019-04-19T19:25:47.241Z,23.60
2019-04-19T19:28:06.222Z,20.37
2019-04-19T19:30:42.742Z,18.27
2019-04-19T19:33:18.055Z,23.87
2019-04-19T19:35:45.841Z,17.37
2019-04-19T19:38:15.537Z,20.40
2019-04-19T19:40:55.393Z,20.40
2019-04-19T19:43:27.433Z,23.97
2019-04-19T19:45:50.787Z,26.13
2019-04-19T19:48:25.977Z,15.73
2019-04-19T19:51:06.107Z,21.07
2019-04-19T19:56:07.336Z,19.33
2019-04-19T19:58:23.613Z,19.77
2019-04-19T20:00:56.747Z,22.70
2019-04-19T20:03:17.524Z,20.43
2019-04-19T20:05:40.422Z,17.37
2019-04-19T20:08:05.944Z,16.90
2019-04-19T20:10:39.826Z,17.23
2019-04-19T20:13:04.926Z,33.43
2019-04-19T20:15:34.010Z,13.83
2019-04-19T20:17:59.418Z,20.57
2019-04-19T20:20:28.248Z,16.97
2019-04-19T20:22:55.858Z,19.73
2019-04-19T20:25:35.751Z,19.53
2019-04-19T20:27:53.753Z,18.50
2019-04-19T20:30:19.913Z,17.80
2019-04-19T20:32:52.887Z,20.47
2019-04-19T20:35:19.570Z,20.77
2019-04-19T20:37:46.644Z,15.67
2019-04-19T20:40:17.178Z,19.40
2019-04-19T20:43:07.540Z,13.43
2019-04-19T20:45:24.143Z,14.53
2019-04-19T20:47:46.172Z,30.13
2019-04-19T20:50:21.214Z,16.93
2019-04-19T20:52:51.117Z,20.63
2019-04-19T20:55:28.116Z,21.83
2019-04-19T20:57:55.718Z,18.57
2019-04-19T21:00:16.563Z,25.33
2019-04-19T21:02:44.009Z,21.80
2019-04-19T21:05:11.419Z,20.83
2019-04-19T21:07:40.350Z,20.00
2019-04-19T21:10:12.866Z,21.40
2019-04-19T21:12:37.953Z,17.53
2019-04-19T21:15:13.894Z,25.53
2019-04-19T21:17:42.412Z,17.63
2019-04-19T21:20:06.829Z,16.20
2019-04-19T21:22:36.598Z,22.50
2019-04-19T21:25:13.969Z,34.10
2019-04-19T21:27:33.147Z,22.67
2019-04-19T21:30:04.205Z,20.40
2019-04-19T21:32:32.145Z,25.70
2019-04-19T21:35:02.020Z,22.00
2019-04-19T21:37:29.162Z,21.77
2019-04-19T21:39:55.850Z,19.30
2019-04-19T21:42:23.847Z,28.23
2019-04-19T21:44:51.590Z,25.93
2019-04-19T21:47:18.358Z,19.00
2019-04-19T21:49:50.870Z,20.77
2019-04-19T21:52:17.367Z,24.20
2019-04-19T21:54:42.144Z,26.33
2019-04-19T21:57:22.602Z,21.90
2019-04-19T21:59:44.238Z,20.23
2019-04-19T22:02:25.633Z,26.27
2019-04-19T22:04:49.096Z,22.20
2019-04-19T22:07:15.070Z,19.03
2019-04-19T22:09:47.567Z,17.93
2019-04-19T22:12:10.263Z,21.13
2019-04-19T22:14:36.713Z,13.07
2019-04-19T22:17:05.543Z,20.77
2019-04-19T22:19:35.206Z,18.53
2019-04-19T22:22:00.892Z,17.40
2019-04-19T22:24:32.361Z,20.67
2019-04-19T22:26:57.513Z,20.67
2019-04-19T22:29:24.076Z,17.00
2019-04-19T22:31:51.766Z,17.90
2019-04-19T22:34:18.814Z,22.43
2019-04-19T22:36:50.237Z,16.17
2019-04-19T22:39:14.115Z,15.23
2019-04-19T22:41:41.253Z,14.17
2019-04-19T22:44:08.902Z,26.13
2019-04-19T22:46:41.821Z,15.37
2019-04-19T22:49:09.536Z,16.87
2019-04-19T22:51:32.909Z,22.00
2019-04-19T22:54:00.902Z,19.00
2019-04-19T22:56:34.596Z,18.00
2019-04-19T22:58:58.163Z,20.00
2019-04-19T23:01:28.012Z,18.60
2019-04-19T23:03:54.709Z,15.50
2019-04-19T23:06:24.757Z,14.47
2019-04-19T23:08:50.516Z,15.50
2019-04-19T23:11:17.365Z,15.70
2019-04-19T23:13:45.299Z,18.10
2019-04-19T23:16:12.293Z,14.07
2019-04-19T23:18:41.287Z,13.83
2019-04-19T23:21:12.903Z,12.60
2019-04-19T23:23:36.428Z,14.80
2019-04-19T23:26:17.584Z,15.23
2019-04-19T23:28:36.686Z,11.90
2019-04-19T23:31:08.436Z,14.63
2019-04-19T23:33:28.436Z,15.37
2019-04-19T23:35:55.547Z,16.50
2019-04-19T23:38:25.662Z,18.73
2019-04-19T23:40:51.009Z,17.37
2019-04-19T23:43:24.229Z,11.90
2019-04-19T23:45:47.967Z,16.23
2019-04-19T23:48:20.092Z,15.73
2019-04-19T23:50:42.607Z,16.00
2019-04-19T23:53:10.168Z,17.13
2019-04-19T23:55:36.663Z,23.27
2019-04-19T23:58:03.222Z,15.70
